This is the latest recevied weather packets stored in our database for station/object KC5CAM-13. If no packets are shown the sender has not sent any weather packets the latest 10 day(s).
| Time | Temp. | Humidity | Pressure | Rain* | Wind** | Luminosity | Snow |
|---|---|---|---|---|---|---|---|
| 1777497216 | 16.67° C | 79% | 1014.1 hPa | 0 mm | - | 130 W/m² | - |
| 1777496912 | 16.67° C | 79% | 1014.3 hPa | 0 mm | - | 118 W/m² | - |
| 1777496609 | 16.67° C | 78% | 1014.5 hPa | 0 mm | - | 117 W/m² | - |
| 1777496306 | 16.67° C | 78% | 1014.4 hPa | 0 mm | - | 98 W/m² | - |
| 1777496002 | 16.67° C | 78% | 1014.7 hPa | 0 mm | - | 78 W/m² | - |
| 1777495698 | 16.67° C | 78% | 1015.1 hPa | 0 mm | - | 89 W/m² | - |
| 1777495394 | 17.22° C | 78% | 1015.2 hPa | 0 mm | - | 62 W/m² | - |
| 1777495091 | 17.22° C | 77% | 1015.1 hPa | 0 mm | - | 65 W/m² | - |
| 1777494788 | 17.22° C | 77% | 1015.2 hPa | 0 mm | - | 139 W/m² | - |
| 1777494485 | 17.22° C | 77% | 1015.1 hPa | 0 mm | - | 136 W/m² | - |
| 1777494182 | 17.22° C | 78% | 1015.3 hPa | 0 mm | - | 128 W/m² | - |
| 1777493879 | 17.22° C | 77% | 1015.5 hPa | 0 mm | - | 86 W/m² | - |
| 1777493577 | 17.22° C | 77% | 1015.6 hPa | 0 mm | - | 147 W/m² | - |
| 1777493274 | 17.22° C | 77% | 1015.8 hPa | 0 mm | - | 110 W/m² | - |
| 1777492970 | 17.78° C | 76% | 1016.2 hPa | 0 mm | - | 74 W/m² | - |
| 1777492668 | 18.33° C | 77% | 1016.2 hPa | 0 mm | - | 89 W/m² | - |
| 1777492367 | 17.78° C | 76% | 1015.7 hPa | 0 mm | - | 212 W/m² | - |
| 1777492065 | 17.78° C | 77% | 1015.6 hPa | 0 mm | - | 227 W/m² | - |
| 1777491762 | 17.78° C | 76% | 1015.8 hPa | 0 mm | - | 142 W/m² | - |
| 1777491459 | 17.78° C | 77% | 1015.8 hPa | 0 mm | - | 138 W/m² | - |
| 1777491156 | 17.78° C | 76% | 1016.2 hPa | 0 mm | - | 97 W/m² | - |
| 1777490851 | 17.78° C | 76% | 1015.6 hPa | 0 mm | - | 161 W/m² | - |
| 1777490548 | 17.22° C | 78% | 1015.7 hPa | 0 mm | - | 155 W/m² | - |
| 1777490244 | 17.22° C | 78% | 1015.8 hPa | 0 mm | - | 180 W/m² | - |
| 1777489942 | 17.22° C | 77% | 1016.1 hPa | 0 mm | - | 98 W/m² | - |
* Rain latest hour (hover to see other rain measurements)
** Current wind speed in m/s (hover to see current wind gust speed)